createdAt,value
2022-07-25T00:00:41.811Z,59.58
2022-07-25T00:05:41.696Z,58.82
2022-07-25T00:10:41.707Z,58.39
2022-07-25T00:15:41.773Z,57.58
2022-07-25T00:20:41.826Z,57.15
2022-07-25T00:25:41.766Z,56.62
2022-07-25T00:30:41.709Z,56.29
2022-07-25T00:35:41.728Z,56.17
2022-07-25T00:40:41.814Z,55.79
2022-07-25T00:45:44.787Z,55.59
2022-07-25T00:50:44.710Z,55.50
2022-07-25T00:55:44.777Z,55.67
2022-07-25T01:00:44.710Z,55.72
2022-07-25T01:05:44.837Z,55.55
2022-07-25T01:10:44.866Z,55.41
2022-07-25T01:15:44.784Z,55.44
2022-07-25T01:20:44.750Z,55.47
2022-07-25T01:25:45.359Z,55.52
2022-07-25T01:30:45.832Z,55.60
2022-07-25T01:35:45.742Z,55.70
2022-07-25T01:40:45.789Z,55.78
2022-07-25T01:45:45.785Z,55.83
2022-07-25T01:50:45.762Z,55.98
2022-07-25T01:55:45.784Z,56.06
2022-07-25T02:00:45.798Z,56.25
2022-07-25T02:05:45.732Z,56.20
2022-07-25T02:10:45.796Z,56.23
2022-07-25T02:15:45.794Z,56.28
2022-07-25T02:20:45.807Z,56.33
2022-07-25T02:25:45.775Z,56.47
2022-07-25T02:30:45.876Z,56.62
2022-07-25T02:35:45.799Z,56.69
2022-07-25T02:40:45.855Z,56.83
2022-07-25T02:45:45.926Z,56.84
2022-07-25T02:50:45.789Z,56.92
2022-07-25T02:55:45.802Z,56.97
2022-07-25T03:00:46.307Z,57.08
2022-07-25T03:05:45.805Z,57.24
2022-07-25T03:10:45.807Z,57.32
2022-07-25T03:15:45.890Z,57.43
2022-07-25T03:20:45.913Z,57.50
2022-07-25T03:25:45.932Z,57.58
2022-07-25T03:30:45.883Z,57.90
2022-07-25T03:35:45.918Z,57.85
2022-07-25T03:40:45.958Z,57.78
2022-07-25T03:45:46.156Z,57.68
2022-07-25T03:50:45.898Z,57.64
2022-07-25T03:55:45.934Z,57.48
2022-07-25T04:00:47.422Z,57.37
2022-07-25T04:05:47.975Z,57.24
2022-07-25T04:10:47.886Z,57.11
2022-07-25T04:15:47.928Z,57.04
2022-07-25T04:20:47.964Z,56.71
2022-07-25T04:25:50.934Z,56.23
2022-07-25T04:30:50.897Z,55.78
2022-07-25T04:35:50.882Z,54.94
2022-07-25T04:40:50.881Z,54.32
2022-07-25T04:45:51.010Z,53.55
2022-07-25T04:50:50.915Z,53.18
2022-07-25T04:55:50.924Z,52.72
2022-07-25T05:00:50.979Z,52.50
2022-07-25T05:05:50.922Z,52.07
2022-07-25T05:10:50.910Z,51.55
2022-07-25T05:15:53.077Z,51.57
2022-07-25T05:20:52.924Z,51.57
2022-07-25T05:25:53.029Z,51.07
2022-07-25T05:30:52.989Z,50.88
2022-07-25T05:35:52.975Z,50.81
2022-07-25T05:40:53.125Z,50.66
2022-07-25T05:45:53.033Z,50.58
2022-07-25T05:50:52.978Z,50.14
2022-07-25T05:55:53.027Z,50.05
2022-07-25T06:00:53.024Z,49.30
2022-07-25T06:05:52.973Z,48.82
2022-07-25T06:10:53.051Z,48.27
2022-07-25T06:15:53.050Z,47.39
2022-07-25T06:20:52.976Z,46.60
2022-07-25T06:25:52.990Z,45.27
2022-07-25T06:30:52.981Z,44.98
2022-07-25T06:35:53.023Z,44.37
2022-07-25T06:40:52.981Z,42.93
2022-07-25T06:45:53.125Z,40.47
2022-07-25T06:50:53.028Z,39.98
2022-07-25T06:55:56.030Z,39.03
2022-07-25T07:00:56.231Z,37.48
2022-07-25T07:05:56.122Z,34.45
2022-07-25T07:10:56.159Z,34.11
2022-07-25T07:15:56.224Z,33.76
2022-07-25T07:20:56.087Z,33.82
2022-07-25T07:25:56.032Z,32.91
2022-07-25T07:31:15.713Z,29.93
2022-07-25T07:35:58.148Z,28.93
2022-07-25T07:40:58.503Z,29.95
2022-07-25T07:46:00.427Z,30.25
2022-07-25T07:51:03.187Z,29.76
2022-07-25T07:56:03.104Z,29.16
2022-07-25T08:01:03.151Z,29.41
2022-07-25T08:06:03.056Z,29.15
2022-07-25T08:11:03.082Z,28.00
2022-07-25T08:16:03.539Z,28.33
2022-07-25T08:21:05.698Z,29.51
2022-07-25T08:26:05.206Z,28.79
2022-07-25T08:31:05.234Z,30.57
2022-07-25T08:36:05.105Z,31.47
2022-07-25T08:41:05.553Z,32.35
2022-07-25T08:46:05.258Z,33.31
2022-07-25T08:51:05.099Z,33.83
2022-07-25T08:56:11.212Z,34.05
2022-07-25T09:01:07.539Z,34.18
2022-07-25T09:06:07.139Z,35.11
2022-07-25T09:11:07.132Z,30.19
2022-07-25T09:16:07.244Z,24.92
2022-07-25T09:21:08.372Z,21.92
2022-07-25T09:26:08.283Z,20.72
2022-07-25T09:31:09.334Z,22.67
2022-07-25T09:36:09.228Z,20.88
2022-07-25T09:41:09.177Z,21.27
2022-07-25T09:46:09.296Z,25.59
2022-07-25T09:51:09.239Z,25.41
2022-07-25T09:56:09.367Z,26.34
2022-07-25T10:01:09.255Z,27.97
2022-07-25T10:06:09.220Z,30.00
2022-07-25T10:11:09.307Z,31.86
2022-07-25T10:16:09.316Z,33.41
2022-07-25T10:21:24.423Z,34.95
2022-07-25T10:26:12.844Z,36.42
2022-07-25T10:31:13.356Z,37.42
2022-07-25T10:36:13.237Z,39.70
2022-07-25T10:41:13.196Z,41.08
2022-07-25T10:46:14.058Z,40.85
2022-07-25T10:51:14.271Z,39.17
2022-07-25T10:56:14.230Z,38.75
2022-07-25T11:01:14.435Z,38.46
2022-07-25T11:06:14.822Z,37.15
2022-07-25T11:11:14.269Z,36.98
2022-07-25T11:16:14.344Z,36.87
2022-07-25T11:21:14.263Z,36.70
2022-07-25T11:26:14.272Z,36.73
2022-07-25T11:31:14.559Z,36.35
2022-07-25T11:36:14.477Z,35.73
2022-07-25T11:41:15.315Z,35.49
2022-07-25T11:46:17.360Z,35.41
2022-07-25T11:51:18.919Z,36.04
2022-07-25T11:56:41.350Z,36.19
2022-07-25T12:01:21.315Z,35.74
2022-07-25T12:06:21.307Z,35.70
2022-07-25T12:11:21.317Z,35.55
2022-07-25T12:16:21.424Z,35.48
2022-07-25T12:21:21.431Z,35.35
2022-07-25T12:26:21.334Z,35.66
2022-07-25T12:31:21.686Z,36.28
2022-07-25T12:36:21.396Z,36.59
2022-07-25T12:41:23.200Z,36.28
2022-07-25T12:46:23.545Z,36.28
2022-07-25T12:51:23.372Z,36.60
2022-07-25T12:56:23.392Z,36.84
2022-07-25T13:01:23.452Z,37.56
2022-07-25T13:06:23.392Z,38.47
2022-07-25T13:11:23.530Z,39.26
2022-07-25T13:16:23.481Z,39.24
2022-07-25T13:21:24.334Z,39.42
2022-07-25T13:26:25.400Z,38.83
2022-07-25T13:31:25.491Z,38.06
2022-07-25T13:36:25.519Z,37.85
2022-07-25T13:41:25.483Z,37.85
2022-07-25T13:46:25.499Z,38.73
2022-07-25T13:51:25.423Z,39.69
2022-07-25T13:56:25.418Z,40.29
2022-07-25T14:01:27.604Z,41.20
2022-07-25T14:06:27.732Z,41.03
2022-07-25T14:11:30.622Z,40.27
2022-07-25T14:16:29.578Z,40.19
2022-07-25T14:21:29.419Z,40.32
2022-07-25T14:26:30.642Z,41.10
2022-07-25T14:31:31.627Z,41.50
2022-07-25T14:36:31.441Z,41.32
2022-07-25T14:41:31.622Z,41.19
2022-07-25T14:46:31.678Z,41.33
2022-07-25T14:51:32.458Z,41.55
2022-07-25T14:56:32.542Z,41.48
2022-07-25T15:01:32.665Z,41.16
2022-07-25T15:06:32.470Z,41.39
2022-07-25T15:11:32.548Z,41.46
2022-07-25T15:16:32.659Z,42.06
2022-07-25T15:21:32.479Z,42.52
2022-07-25T15:26:32.812Z,42.91
2022-07-25T15:31:32.594Z,43.84
2022-07-25T15:36:32.499Z,44.38
2022-07-25T15:41:32.514Z,45.10
2022-07-25T15:46:33.447Z,45.87
2022-07-25T15:51:33.623Z,46.34
2022-07-25T15:56:33.526Z,46.90
2022-07-25T16:01:33.589Z,47.33
2022-07-25T16:06:33.854Z,46.70
2022-07-25T16:11:35.227Z,46.08
2022-07-25T16:16:35.644Z,44.82
2022-07-25T16:21:35.535Z,44.63
2022-07-25T16:26:35.539Z,44.27
2022-07-25T16:31:35.659Z,44.40
2022-07-25T16:36:35.702Z,44.43
2022-07-25T16:41:35.577Z,44.71
2022-07-25T16:46:35.878Z,44.86
2022-07-25T16:51:37.287Z,44.46
2022-07-25T16:56:37.875Z,44.44
2022-07-25T17:01:37.609Z,45.02
2022-07-25T17:06:37.582Z,45.66
2022-07-25T17:11:37.579Z,45.97
2022-07-25T17:16:37.751Z,46.11
2022-07-25T17:21:37.636Z,46.17
2022-07-25T17:26:37.687Z,46.50
2022-07-25T17:31:37.704Z,46.65
2022-07-25T17:36:38.060Z,47.13
2022-07-25T17:41:37.707Z,46.95
2022-07-25T17:46:37.730Z,47.08
2022-07-25T17:51:37.622Z,47.14
2022-07-25T17:56:37.647Z,47.09
2022-07-25T18:01:39.553Z,47.16
2022-07-25T18:06:39.645Z,46.91
2022-07-25T18:11:41.108Z,46.95
2022-07-25T18:16:41.113Z,47.23
2022-07-25T18:21:40.767Z,47.03
2022-07-25T18:26:40.618Z,46.63
2022-07-25T18:31:40.684Z,46.20
2022-07-25T18:36:40.795Z,46.37
2022-07-25T18:41:40.736Z,46.76
2022-07-25T18:46:41.106Z,47.08
2022-07-25T18:51:40.894Z,47.38
2022-07-25T18:56:40.693Z,47.58
2022-07-25T19:01:40.813Z,48.03
2022-07-25T19:06:40.774Z,48.47
2022-07-25T19:11:42.321Z,48.09
2022-07-25T19:16:43.007Z,48.06
2022-07-25T19:21:44.657Z,48.33
2022-07-25T19:26:48.398Z,48.39
2022-07-25T19:31:46.788Z,48.60
2022-07-25T19:36:46.707Z,48.87
2022-07-25T19:41:47.326Z,49.43
2022-07-25T19:46:49.085Z,49.52
2022-07-25T19:51:48.808Z,49.89
2022-07-25T19:56:48.832Z,50.19
2022-07-25T20:01:49.806Z,50.12
2022-07-25T20:06:50.165Z,50.18
2022-07-25T20:11:49.765Z,50.38
2022-07-25T20:16:49.985Z,50.48
2022-07-25T20:21:49.789Z,50.65
2022-07-25T20:26:49.786Z,50.81
2022-07-25T20:31:51.631Z,50.88
2022-07-25T20:36:52.248Z,50.99
2022-07-25T20:41:51.759Z,50.87
2022-07-25T20:46:51.894Z,50.95
2022-07-25T20:51:54.651Z,51.06
2022-07-25T20:56:53.845Z,51.18
2022-07-25T21:01:53.844Z,51.36
2022-07-25T21:06:56.591Z,51.54
2022-07-25T21:11:56.769Z,51.70
2022-07-25T21:16:56.842Z,51.93
2022-07-25T21:21:56.908Z,51.96
2022-07-25T21:26:56.956Z,51.90
2022-07-25T21:31:56.860Z,51.83
2022-07-25T21:36:56.881Z,51.85
2022-07-25T21:41:56.794Z,51.84
2022-07-25T21:46:56.816Z,51.90
2022-07-25T21:51:56.894Z,51.94
2022-07-25T21:56:57.898Z,52.19
2022-07-25T22:02:00.912Z,52.31
2022-07-25T22:07:00.894Z,52.63
2022-07-25T22:12:00.916Z,52.81
2022-07-25T22:17:00.911Z,53.01
2022-07-25T22:22:00.853Z,53.17
2022-07-25T22:27:00.983Z,53.23
2022-07-25T22:32:04.002Z,53.29
2022-07-25T22:37:03.829Z,53.40
2022-07-25T22:42:03.896Z,53.50
2022-07-25T22:47:03.971Z,53.51
2022-07-25T22:52:03.901Z,53.84
2022-07-25T22:57:03.918Z,54.30
2022-07-25T23:02:03.934Z,54.54
2022-07-25T23:07:03.842Z,54.44
2022-07-25T23:12:03.909Z,54.68
2022-07-25T23:17:20.084Z,54.84
2022-07-25T23:22:19.960Z,55.02
2022-07-25T23:27:19.940Z,55.43
2022-07-25T23:32:19.930Z,55.68
2022-07-25T23:37:19.975Z,55.80
2022-07-25T23:42:19.916Z,56.09
2022-07-25T23:47:25.629Z,56.04
2022-07-25T23:52:22.022Z,56.09
2022-07-25T23:57:22.003Z,56.08
